createdAt,value
2019-02-16T00:00:44.962Z,99749.34
2019-02-16T00:03:12.939Z,99745.93
2019-02-16T00:05:40.526Z,99744.83
2019-02-16T00:08:08.402Z,99743.45
2019-02-16T00:10:36.684Z,99741.89
2019-02-16T00:13:04.806Z,99742.63
2019-02-16T00:15:32.532Z,99739.11
2019-02-16T00:18:00.279Z,99742.16
2019-02-16T00:20:28.447Z,99738.95
2019-02-16T00:22:56.817Z,99740.75
2019-02-16T00:25:24.558Z,99732.05
2019-02-16T00:27:53.327Z,99737.89
2019-02-16T00:30:22.241Z,99733.14
2019-02-16T00:32:50.206Z,99730.08
2019-02-16T00:35:18.182Z,99731.41
2019-02-16T00:37:46.150Z,99727.61
2019-02-16T00:40:14.223Z,99731.61
2019-02-16T00:42:42.493Z,99733.49
2019-02-16T00:45:12.174Z,99732.59
2019-02-16T00:47:40.589Z,99731.69
2019-02-16T00:50:08.433Z,99711.87
2019-02-16T00:52:37.949Z,99722.79
2019-02-16T00:55:05.465Z,99721.57
2019-02-16T00:57:34.284Z,99718.16
2019-02-16T01:00:05.473Z,99718.20
2019-02-16T01:02:34.186Z,99719.11
2019-02-16T01:05:02.251Z,99718.28
2019-02-16T01:07:30.659Z,99709.46
2019-02-16T01:09:59.239Z,99711.77
2019-02-16T01:12:27.018Z,99713.02
2019-02-16T01:14:56.267Z,99714.47
2019-02-16T01:17:23.824Z,99713.38
2019-02-16T01:19:51.563Z,99716.43
2019-02-16T01:22:20.011Z,99712.27
2019-02-16T01:24:48.320Z,99711.95
2019-02-16T01:27:17.272Z,99709.88
2019-02-16T01:29:45.168Z,99703.02
2019-02-16T01:32:13.213Z,99705.27
2019-02-16T01:34:41.480Z,99704.82
2019-02-16T01:37:09.443Z,99705.49
2019-02-16T01:39:38.723Z,99705.49
2019-02-16T01:42:06.702Z,99709.49
2019-02-16T01:44:34.432Z,99708.34
2019-02-16T01:47:03.366Z,99700.40
2019-02-16T01:49:31.098Z,99697.38
2019-02-16T01:51:59.540Z,99692.28
2019-02-16T01:54:27.865Z,99691.77
2019-02-16T01:56:55.634Z,99700.05
2019-02-16T01:59:24.074Z,99696.42
2019-02-16T02:01:52.686Z,99695.84
2019-02-16T02:04:20.548Z,99694.63
2019-02-16T02:06:48.247Z,99687.84
2019-02-16T02:09:16.342Z,99684.62
2019-02-16T02:11:43.915Z,99685.03
2019-02-16T02:14:11.927Z,99683.81
2019-02-16T02:16:40.471Z,99683.97
2019-02-16T02:19:08.451Z,99680.48
2019-02-16T02:21:41.203Z,99681.34
2019-02-16T02:24:05.766Z,99679.11
2019-02-16T02:26:33.829Z,99676.80
2019-02-16T02:29:01.384Z,99677.35
2019-02-16T02:31:29.718Z,99682.36
2019-02-16T02:33:57.696Z,99675.98
2019-02-16T02:36:25.296Z,99675.63
2019-02-16T02:38:53.393Z,99681.03
2019-02-16T02:41:21.327Z,99676.72
2019-02-16T02:43:48.979Z,99674.64
2019-02-16T02:46:17.123Z,99675.97
2019-02-16T02:48:46.913Z,99675.73
2019-02-16T02:51:14.725Z,99672.80
2019-02-16T02:53:42.411Z,99672.16
2019-02-16T02:56:11.806Z,99674.13
2019-02-16T02:58:39.964Z,99673.35
2019-02-16T03:01:26.526Z,99684.55
2019-02-16T03:03:55.681Z,99677.03
2019-02-16T03:06:25.738Z,99677.42
2019-02-16T03:08:53.557Z,99613.17
2019-02-16T03:11:23.119Z,99677.54
2019-02-16T03:13:51.787Z,99672.67
2019-02-16T03:16:20.185Z,99668.45
2019-02-16T03:18:47.832Z,99676.39
2019-02-16T03:21:18.185Z,99673.92
2019-02-16T03:23:45.860Z,99675.53
2019-02-16T03:26:28.076Z,99674.03
2019-02-16T03:29:36.361Z,99672.59
2019-02-16T03:32:49.701Z,99672.95
2019-02-16T03:37:09.043Z,99683.80
2019-02-16T03:39:42.975Z,99673.05
2019-02-16T03:42:11.007Z,99683.24
2019-02-16T03:44:39.181Z,99677.93
2019-02-16T03:47:07.394Z,99678.19
2019-02-16T03:49:35.433Z,99673.52
2019-02-16T03:52:12.935Z,99679.76
2019-02-16T03:54:34.000Z,99679.98
2019-02-16T03:57:01.903Z,99678.00
2019-02-16T03:59:29.733Z,99677.54
2019-02-16T04:01:57.864Z,99674.24
2019-02-16T04:04:26.504Z,99673.54
2019-02-16T04:06:54.883Z,99679.34
2019-02-16T04:09:22.863Z,99678.75
2019-02-16T04:11:51.184Z,99685.12
2019-02-16T04:14:19.398Z,99683.05
2019-02-16T04:16:48.363Z,99691.91
2019-02-16T04:19:16.886Z,99693.17
2019-02-16T04:21:45.233Z,99688.57
2019-02-16T04:24:13.160Z,99694.92
2019-02-16T04:26:41.219Z,99695.56
2019-02-16T04:29:08.897Z,99693.77
2019-02-16T04:31:37.930Z,99686.25
2019-02-16T04:34:06.707Z,99683.35
2019-02-16T04:36:35.341Z,99684.96
2019-02-16T04:39:04.540Z,99683.70
2019-02-16T04:41:32.930Z,99688.02
2019-02-16T04:44:01.008Z,99694.22
2019-02-16T04:46:29.322Z,99691.28
2019-02-16T04:48:58.649Z,99686.65
2019-02-16T04:51:26.766Z,99691.70
2019-02-16T04:53:54.348Z,99696.80
2019-02-16T04:56:23.040Z,99700.88
2019-02-16T04:58:50.771Z,99698.28
2019-02-16T05:01:19.097Z,99692.72
2019-02-16T05:03:47.194Z,99695.23
2019-02-16T05:06:15.053Z,99695.73
2019-02-16T05:08:43.198Z,99694.70
2019-02-16T05:11:11.678Z,99695.75
2019-02-16T05:13:39.712Z,99686.30
2019-02-16T05:16:08.461Z,99697.13
2019-02-16T05:18:36.806Z,99695.97
2019-02-16T05:21:07.756Z,99692.21
2019-02-16T05:23:36.470Z,99699.69
2019-02-16T05:28:47.376Z,99698.73
2019-02-16T05:31:14.595Z,99700.83
2019-02-16T05:33:41.771Z,99700.83
2019-02-16T05:36:09.047Z,99701.81
2019-02-16T05:38:36.201Z,99698.64
2019-02-16T05:41:03.352Z,99698.64
2019-02-16T05:43:30.664Z,99694.05
2019-02-16T05:45:57.954Z,99689.83
2019-02-16T05:48:25.875Z,99688.72
2019-02-16T05:50:53.100Z,99691.23
2019-02-16T05:53:20.401Z,99686.38
2019-02-16T05:55:48.519Z,99688.57
2019-02-16T05:58:16.347Z,99688.72
2019-02-16T06:00:43.837Z,99690.06
2019-02-16T06:03:12.015Z,99694.13
2019-02-16T06:05:40.901Z,99694.13
2019-02-16T06:08:09.132Z,99695.16
2019-02-16T06:10:36.690Z,99702.67
2019-02-16T06:13:03.968Z,99694.88
2019-02-16T06:15:31.703Z,99694.36
2019-02-16T06:17:59.465Z,99690.18
2019-02-16T06:20:27.897Z,99690.37
2019-02-16T06:23:03.927Z,99652.06
2019-02-16T06:25:25.354Z,99696.44
2019-02-16T06:27:52.547Z,99696.44
2019-02-16T06:30:19.752Z,99700.43
2019-02-16T06:32:47.995Z,99701.02
2019-02-16T06:35:28.924Z,99702.81
2019-02-16T06:37:56.325Z,99706.34
2019-02-16T06:40:23.547Z,99708.55
2019-02-16T06:42:50.872Z,99701.00
2019-02-16T06:45:18.167Z,99703.44
2019-02-16T06:47:45.966Z,99714.16
2019-02-16T06:50:14.108Z,99716.86
2019-02-16T06:54:57.903Z,99713.56
2019-02-16T06:57:29.691Z,99719.80
2019-02-16T06:59:56.853Z,99722.55
2019-02-16T07:02:25.963Z,99732.13
2019-02-16T07:04:54.220Z,99734.23
2019-02-16T07:07:22.375Z,99732.89
2019-02-16T07:09:49.649Z,99731.02
2019-02-16T07:12:18.395Z,99732.20
2019-02-16T07:14:46.455Z,99733.45
2019-02-16T07:17:36.044Z,99731.25
2019-02-16T07:20:04.095Z,99734.48
2019-02-16T07:22:31.522Z,99732.16
2019-02-16T07:24:59.585Z,99726.80
2019-02-16T07:27:26.759Z,99729.69
2019-02-16T07:29:54.837Z,99729.45
2019-02-16T07:32:23.026Z,99725.38
2019-02-16T07:34:50.879Z,99727.98
2019-02-16T07:37:18.784Z,99673.98
2019-02-16T07:39:47.010Z,99728.15
2019-02-16T07:42:14.760Z,99731.11
2019-02-16T07:45:01.135Z,99737.23
2019-02-16T07:47:34.037Z,99737.23
2019-02-16T07:50:19.926Z,99730.60
2019-02-16T07:53:01.567Z,99737.19
2019-02-16T07:55:32.959Z,99743.53
2019-02-16T07:58:06.955Z,99744.56
2019-02-16T08:00:57.906Z,99740.05
2019-02-16T08:03:44.053Z,99737.10
2019-02-16T08:06:29.466Z,99735.38
2019-02-16T08:09:04.785Z,99738.28
2019-02-16T08:11:57.674Z,99745.80
2019-02-16T08:14:44.136Z,99744.20
2019-02-16T08:19:08.892Z,99737.47
2019-02-16T08:21:46.492Z,99743.83
2019-02-16T08:24:33.348Z,99742.16
2019-02-16T08:27:18.589Z,99746.84
2019-02-16T08:29:55.807Z,99733.72
2019-02-16T08:32:48.480Z,99734.98
2019-02-16T08:35:29.299Z,99735.19
2019-02-16T08:38:12.458Z,99736.08
2019-02-16T08:41:02.033Z,99737.55
2019-02-16T08:43:46.569Z,99731.08
2019-02-16T08:46:30.273Z,99730.80
2019-02-16T08:49:16.313Z,99735.97
2019-02-16T08:51:49.351Z,99736.85
2019-02-16T08:54:40.772Z,99734.76
2019-02-16T08:57:24.258Z,99735.22
2019-02-16T09:00:23.220Z,99726.94
2019-02-16T09:02:58.307Z,99726.42
2019-02-16T09:05:38.241Z,99721.20
2019-02-16T09:08:25.097Z,99721.69
2019-02-16T09:11:12.732Z,99680.47
2019-02-16T09:14:30.842Z,99706.08
2019-02-16T09:17:31.944Z,99702.67
2019-02-16T09:20:19.041Z,99700.02
2019-02-16T09:22:53.033Z,99706.45
2019-02-16T09:25:28.548Z,99699.29
2019-02-16T09:28:15.656Z,99699.29
2019-02-16T09:31:10.386Z,99698.77
2019-02-16T09:33:46.765Z,99699.40
2019-02-16T09:36:25.545Z,99697.98
2019-02-16T09:41:26.070Z,99695.03
2019-02-16T09:44:11.854Z,99697.08
2019-02-16T09:47:01.843Z,99698.44
2019-02-16T09:49:47.864Z,99699.89
2019-02-16T09:52:34.776Z,99699.89
2019-02-16T09:55:17.903Z,99693.12
2019-02-16T09:58:04.677Z,99700.25
2019-02-16T10:01:04.611Z,99699.43
2019-02-16T10:03:51.208Z,99697.08
2019-02-16T10:06:38.514Z,99690.84
2019-02-16T10:09:24.266Z,99703.71
2019-02-16T10:12:23.613Z,99699.78
2019-02-16T10:15:10.671Z,99702.38
2019-02-16T10:17:49.901Z,99703.71
2019-02-16T10:20:24.776Z,99701.44
2019-02-16T10:23:11.409Z,99703.02
2019-02-16T10:25:49.839Z,99705.50
2019-02-16T10:28:35.191Z,99697.30
2019-02-16T10:31:25.768Z,99701.52
2019-02-16T10:34:32.057Z,99701.52
2019-02-16T10:37:11.496Z,99703.13
2019-02-16T10:40:05.130Z,99706.83
2019-02-16T10:42:56.085Z,99710.62
2019-02-16T10:45:39.293Z,99706.77
2019-02-16T10:48:26.350Z,99700.27
2019-02-16T10:51:04.561Z,99700.81
2019-02-16T10:53:56.330Z,99694.92
2019-02-16T10:56:43.035Z,99692.27
2019-02-16T11:03:29.565Z,99679.30
2019-02-16T11:06:23.450Z,99677.95
2019-02-16T11:09:17.549Z,99679.38
2019-02-16T11:11:58.115Z,99676.83
2019-02-16T11:14:46.207Z,99681.75
2019-02-16T11:17:53.132Z,99677.16
2019-02-16T11:20:41.936Z,99676.19
2019-02-16T11:23:30.863Z,99666.45
2019-02-16T11:26:28.988Z,99662.17
2019-02-16T11:29:13.187Z,99665.32
2019-02-16T11:32:03.741Z,99662.38
2019-02-16T11:34:56.711Z,99658.72
2019-02-16T11:37:38.432Z,99654.56
2019-02-16T11:40:18.437Z,99654.66
2019-02-16T11:47:20.905Z,99651.44
2019-02-16T11:50:05.424Z,99649.50
2019-02-16T11:53:08.793Z,99649.52
2019-02-16T11:55:44.354Z,99650.70
2019-02-16T11:58:22.790Z,99648.77
2019-02-16T12:01:14.107Z,99633.49
2019-02-16T12:03:57.197Z,99628.45
2019-02-16T12:06:30.322Z,99630.91
2019-02-16T12:09:24.136Z,99625.83
2019-02-16T12:12:14.754Z,99622.73
2019-02-16T12:15:05.149Z,99621.22
2019-02-16T12:17:42.366Z,99595.64
2019-02-16T12:20:33.154Z,99595.64
2019-02-16T12:23:04.906Z,99595.88
2019-02-16T12:25:45.637Z,99595.88
2019-02-16T12:28:39.871Z,99611.66
2019-02-16T12:31:27.476Z,99613.28
2019-02-16T12:34:06.321Z,99597.84
2019-02-16T12:37:00.740Z,99594.16
2019-02-16T12:39:58.839Z,99536.84
2019-02-16T12:42:46.468Z,99587.56
2019-02-16T12:45:50.966Z,99584.97
2019-02-16T12:51:03.675Z,99578.03
2019-02-16T12:54:01.921Z,99576.13
2019-02-16T12:56:48.749Z,99578.10
2019-02-16T12:59:35.647Z,99569.19
2019-02-16T13:02:28.919Z,99570.86
2019-02-16T13:05:22.686Z,99561.30
2019-02-16T13:08:09.641Z,99562.63
2019-02-16T13:11:09.479Z,99568.76
2019-02-16T13:13:59.035Z,99561.30
2019-02-16T13:16:31.919Z,99555.54
2019-02-16T13:19:21.858Z,99560.69
2019-02-16T13:21:55.419Z,99556.95
2019-02-16T13:24:46.703Z,99551.27
2019-02-16T13:27:39.779Z,99552.05
2019-02-16T13:30:14.269Z,99548.84
2019-02-16T13:33:11.083Z,99544.39
2019-02-16T13:35:58.390Z,99540.30
2019-02-16T13:38:48.266Z,99527.49
2019-02-16T13:41:36.367Z,99540.92
2019-02-16T13:44:43.305Z,99540.38
2019-02-16T13:47:39.578Z,99550.56
2019-02-16T13:50:27.471Z,99546.90
2019-02-16T13:53:21.917Z,99541.77
2019-02-16T13:56:01.689Z,99541.23
2019-02-16T14:01:34.836Z,99530.83
2019-02-16T14:05:22.468Z,99531.88
2019-02-16T14:07:58.406Z,99533.27
2019-02-16T14:10:45.577Z,99534.34
2019-02-16T14:13:33.399Z,99526.83
2019-02-16T14:16:15.989Z,99523.06
2019-02-16T14:18:44.523Z,99520.12
2019-02-16T14:21:19.198Z,99514.72
2019-02-16T14:23:50.594Z,99517.70
2019-02-16T14:26:19.258Z,99517.15
2019-02-16T14:28:48.614Z,99515.29
2019-02-16T14:31:17.851Z,99514.77
2019-02-16T14:33:46.515Z,99509.93
2019-02-16T14:36:15.138Z,99508.84
2019-02-16T14:38:54.921Z,99508.84
2019-02-16T14:41:23.309Z,99513.13
2019-02-16T14:43:52.011Z,99513.13
2019-02-16T14:46:22.392Z,99513.39
2019-02-16T14:48:50.833Z,99514.20
2019-02-16T14:51:19.265Z,99510.45
2019-02-16T14:53:47.847Z,99520.64
2019-02-16T14:56:16.870Z,99515.80
2019-02-16T14:58:45.240Z,99505.87
2019-02-16T15:01:13.617Z,99495.72
2019-02-16T15:03:42.947Z,99498.13
2019-02-16T15:06:12.033Z,99501.86
2019-02-16T15:08:40.218Z,99501.86
2019-02-16T15:11:08.438Z,99498.64
2019-02-16T15:13:36.971Z,99497.83
2019-02-16T15:16:05.231Z,99493.52
2019-02-16T15:18:33.726Z,99499.42
2019-02-16T15:21:01.615Z,99498.61
2019-02-16T15:23:29.528Z,99495.92
2019-02-16T15:26:01.013Z,99491.61
2019-02-16T15:28:28.127Z,99489.22
2019-02-16T15:30:56.799Z,99493.76
2019-02-16T15:33:25.160Z,99490.52
2019-02-16T15:35:53.696Z,99484.09
2019-02-16T15:38:22.781Z,99483.82
2019-02-16T15:40:50.996Z,99485.94
2019-02-16T15:43:19.736Z,99483.78
2019-02-16T15:45:48.072Z,99483.78
2019-02-16T15:48:16.277Z,99486.42
2019-02-16T15:50:44.152Z,99480.23
2019-02-16T15:53:12.937Z,99480.23
2019-02-16T15:55:41.670Z,99485.03
2019-02-16T15:58:09.953Z,99485.53
2019-02-16T16:00:38.443Z,99483.68
2019-02-16T16:03:07.453Z,99474.57
2019-02-16T16:05:36.082Z,99486.86
2019-02-16T16:08:22.683Z,99486.86
2019-02-16T16:11:03.007Z,99469.92
2019-02-16T16:13:49.807Z,99469.92
2019-02-16T16:16:34.134Z,99481.46
2019-02-16T16:19:24.537Z,99479.55
2019-02-16T16:22:27.952Z,99483.55
2019-02-16T16:25:16.115Z,99480.88
2019-02-16T16:28:13.815Z,99479.79
2019-02-16T16:31:04.097Z,99476.85
2019-02-16T16:34:00.381Z,99473.61
2019-02-16T16:36:57.400Z,99472.78
2019-02-16T16:39:37.567Z,99474.11
2019-02-16T16:42:29.577Z,99475.96
2019-02-16T16:45:20.496Z,99475.91
2019-02-16T16:48:08.103Z,99473.21
2019-02-16T16:50:55.231Z,99475.11
2019-02-16T16:53:41.205Z,99446.27
2019-02-16T16:56:31.880Z,99483.34
2019-02-16T16:59:27.556Z,99489.19
2019-02-16T17:02:14.699Z,99487.66
2019-02-16T17:05:07.007Z,99489.87
2019-02-16T17:07:42.521Z,99493.05
2019-02-16T17:10:36.231Z,99502.09
2019-02-16T17:13:14.363Z,99501.53
2019-02-16T17:15:52.191Z,99507.87
2019-02-16T17:18:39.767Z,99511.36
2019-02-16T17:21:23.216Z,99491.45
2019-02-16T17:24:11.787Z,99521.28
2019-02-16T17:26:59.641Z,99517.22
2019-02-16T17:29:53.708Z,99519.11
2019-02-16T17:32:41.133Z,99521.18
2019-02-16T17:35:26.241Z,99520.61
2019-02-16T17:38:16.489Z,99528.63
2019-02-16T17:41:04.603Z,99527.52
2019-02-16T17:43:45.581Z,99526.70
2019-02-16T17:46:35.961Z,99524.02
2019-02-16T17:49:34.009Z,99522.66
2019-02-16T17:52:18.618Z,99525.34
2019-02-16T17:55:12.382Z,99527.75
2019-02-16T18:00:49.275Z,99524.85
2019-02-16T18:03:46.735Z,99525.84
2019-02-16T18:06:34.772Z,99521.34
2019-02-16T18:09:35.699Z,99519.15
2019-02-16T18:12:20.754Z,99506.09
2019-02-16T18:15:11.378Z,99525.47
2019-02-16T18:18:05.312Z,99530.02
2019-02-16T18:21:03.337Z,99525.73
2019-02-16T18:23:58.033Z,99527.55
2019-02-16T18:26:35.204Z,99525.91
2019-02-16T18:29:26.177Z,99535.02
2019-02-16T18:32:14.080Z,99525.12
2019-02-16T18:35:01.745Z,99527.95
2019-02-16T18:37:52.707Z,99521.79
2019-02-16T18:40:52.824Z,99524.86
2019-02-16T18:43:53.234Z,99525.05
2019-02-16T18:46:37.886Z,99527.72
2019-02-16T18:49:28.167Z,99527.45
2019-02-16T18:52:15.135Z,99521.55
2019-02-16T18:55:11.109Z,99518.08
2019-02-16T18:57:57.252Z,99514.57
2019-02-16T19:00:35.985Z,99510.21
2019-02-16T19:03:09.653Z,99512.61
2019-02-16T19:06:12.747Z,99513.21
2019-02-16T19:08:53.710Z,99512.59
2019-02-16T19:11:43.491Z,99506.92
2019-02-16T19:14:32.400Z,99513.11
2019-02-16T19:17:09.410Z,99510.39
2019-02-16T19:20:13.075Z,99514.59
2019-02-16T19:23:03.360Z,99503.19
2019-02-16T19:25:39.274Z,99505.30
2019-02-16T19:28:33.608Z,99504.83
2019-02-16T19:31:27.543Z,99510.05
2019-02-16T19:34:33.871Z,99510.88
2019-02-16T19:37:21.679Z,99510.88
2019-02-16T19:40:08.499Z,99507.64
2019-02-16T19:43:15.395Z,99509.20
2019-02-16T19:46:02.071Z,99514.95
2019-02-16T19:48:50.236Z,99507.89
2019-02-16T19:51:38.480Z,99505.69
2019-02-16T19:54:27.355Z,99504.80
2019-02-16T19:57:06.990Z,99502.42
2019-02-16T20:00:06.201Z,99501.80
2019-02-16T20:03:07.025Z,99501.61
2019-02-16T20:05:45.863Z,99491.13
2019-02-16T20:08:18.933Z,99499.38
2019-02-16T20:11:06.306Z,99497.22
2019-02-16T20:13:53.776Z,99498.75
2019-02-16T20:16:44.609Z,99495.08
2019-02-16T20:19:23.530Z,99495.95
2019-02-16T20:22:14.254Z,99500.58
2019-02-16T20:25:05.114Z,99497.96
2019-02-16T20:27:59.813Z,99499.52
2019-02-16T20:30:42.421Z,99501.91
2019-02-16T20:33:20.391Z,99506.19
2019-02-16T20:36:11.640Z,99500.80
2019-02-16T20:38:58.954Z,99506.05
2019-02-16T20:41:47.184Z,99502.98
2019-02-16T20:44:34.062Z,99496.22
2019-02-16T20:47:12.851Z,99500.31
2019-02-16T20:50:06.251Z,99505.41
2019-02-16T20:52:48.050Z,99503.23
2019-02-16T20:55:36.154Z,99504.87
2019-02-16T20:58:17.548Z,99500.44
2019-02-16T21:00:53.219Z,99497.83
2019-02-16T21:03:57.253Z,99498.34
2019-02-16T21:06:32.446Z,99498.34
2019-02-16T21:09:26.033Z,99494.89
2019-02-16T21:12:18.207Z,99490.13
2019-02-16T21:14:54.955Z,99490.66
2019-02-16T21:18:55.618Z,99486.39
2019-02-16T21:25:08.113Z,99479.66
2019-02-16T21:27:59.918Z,99482.91
2019-02-16T21:30:37.640Z,99482.95
2019-02-16T21:33:28.575Z,99477.52
2019-02-16T21:36:16.263Z,99477.52
2019-02-16T21:39:06.270Z,99481.54
2019-02-16T21:41:43.668Z,99477.27
2019-02-16T21:44:20.060Z,99479.36
2019-02-16T21:47:11.547Z,99472.67
2019-02-16T21:50:02.964Z,99473.62
2019-02-16T21:52:51.108Z,99475.66
2019-02-16T21:55:36.967Z,99471.84
2019-02-16T21:58:24.647Z,99470.87
2019-02-16T22:01:21.225Z,99474.87
2019-02-16T22:03:57.317Z,99475.66
2019-02-16T22:06:33.297Z,99471.11
2019-02-16T22:09:39.268Z,99475.58
2019-02-16T22:12:42.740Z,99475.00
2019-02-16T22:15:11.023Z,99468.64
2019-02-16T22:17:39.250Z,99465.72
2019-02-16T22:20:10.253Z,99456.09
2019-02-16T22:22:38.075Z,99461.17
2019-02-16T22:25:06.146Z,99466.22
2019-02-16T22:27:34.501Z,99457.97
2019-02-16T22:30:03.220Z,99461.34
2019-02-16T22:32:31.341Z,99464.01
2019-02-16T22:35:00.500Z,99462.43
2019-02-16T22:37:28.498Z,99455.78
2019-02-16T22:39:57.492Z,99463.00
2019-02-16T22:42:25.756Z,99460.98
2019-02-16T22:44:54.249Z,99457.72
2019-02-16T22:47:22.369Z,99457.59
2019-02-16T22:49:52.175Z,99461.13
2019-02-16T22:52:20.941Z,99458.48
2019-02-16T22:54:50.590Z,99458.48
2019-02-16T22:57:18.861Z,99456.06
2019-02-16T22:59:47.528Z,99456.06
2019-02-16T23:02:15.685Z,99456.88
2019-02-16T23:04:43.931Z,99461.04
2019-02-16T23:07:12.623Z,99457.91
2019-02-16T23:12:14.032Z,99462.50
2019-02-16T23:14:42.271Z,99462.50
2019-02-16T23:17:10.907Z,99461.36
2019-02-16T23:19:39.327Z,99466.45
2019-02-16T23:22:07.516Z,99464.44
2019-02-16T23:24:37.010Z,99459.89
2019-02-16T23:27:04.804Z,99454.91
2019-02-16T23:29:33.462Z,99458.77
2019-02-16T23:32:01.925Z,99456.19
2019-02-16T23:34:30.362Z,99456.68
2019-02-16T23:36:58.813Z,99456.68
2019-02-16T23:39:27.339Z,99447.05
2019-02-16T23:41:55.640Z,99448.19
2019-02-16T23:44:26.628Z,99444.10
2019-02-16T23:46:54.703Z,99447.77
2019-02-16T23:49:25.625Z,99441.08
2019-02-16T23:51:53.624Z,99442.14
2019-02-16T23:54:22.414Z,99442.14
2019-02-16T23:56:51.723Z,99441.27
2019-02-16T23:59:20.965Z,99443.02
